TimeCDT,TemperatureF,Dew PointF,Humidity,Sea Level PressureIn,VisibilityMPH,Wind Direction,Wind SpeedMPH,Gust SpeedMPH,PrecipitationIn,Events,Conditions,WindDirDegrees,DateUTC
12:15 AM,62.6,57.2,82,29.84,10.0,North,13.8,-,N/A,,Clear,10,2013-09-02 05:15:00
12:35 AM,62.6,55.4,77,29.84,10.0,North,13.8,19.6,N/A,,Clear,10,2013-09-02 05:35:00
12:55 AM,60.8,55.4,82,29.84,10.0,North,13.8,-,N/A,,Clear,10,2013-09-02 05:55:00
1:15 AM,60.8,55.4,82,29.85,10.0,North,13.8,-,N/A,,Clear,360,2013-09-02 06:15:00
1:35 AM,60.8,55.4,82,29.85,10.0,North,12.7,-,N/A,,Scattered Clouds,350,2013-09-02 06:35:00
1:55 AM,60.8,55.4,82,29.84,10.0,North,11.5,-,N/A,,Partly Cloudy,350,2013-09-02 06:55:00
2:15 AM,60.8,55.4,82,29.84,10.0,North,13.8,-,N/A,,Mostly Cloudy,350,2013-09-02 07:15:00
2:35 AM,60.8,55.4,82,29.85,10.0,North,11.5,19.6,N/A,,Overcast,350,2013-09-02 07:35:00
2:55 AM,60.8,55.4,82,29.85,10.0,NNW,13.8,-,N/A,,Overcast,340,2013-09-02 07:55:00
3:15 AM,60.8,55.4,82,29.87,10.0,North,11.5,18.4,N/A,,Overcast,350,2013-09-02 08:15:00
3:35 AM,60.8,53.6,77,29.87,10.0,NNW,11.5,-,N/A,,Overcast,340,2013-09-02 08:35:00
3:55 AM,60.8,53.6,77,29.88,10.0,NNW,13.8,18.4,N/A,,Overcast,330,2013-09-02 08:55:00
4:15 AM,59.0,51.8,77,29.88,10.0,NNW,12.7,20.7,N/A,,Overcast,330,2013-09-02 09:15:00
4:35 AM,59.0,51.8,77,29.89,10.0,NNW,17.3,20.7,N/A,,Overcast,340,2013-09-02 09:35:00
4:55 AM,57.2,50.0,77,29.89,10.0,NNW,15.0,21.9,N/A,,Overcast,330,2013-09-02 09:55:00
5:15 AM,57.2,50.0,77,29.89,10.0,NNW,15.0,19.6,N/A,,Overcast,340,2013-09-02 10:15:00
5:35 AM,57.2,48.2,72,29.90,10.0,NNW,13.8,-,N/A,,Overcast,340,2013-09-02 10:35:00
5:55 AM,57.2,48.2,72,29.90,10.0,NNW,15.0,-,N/A,,Overcast,340,2013-09-02 10:55:00
6:15 AM,57.2,48.2,72,29.91,10.0,North,13.8,18.4,N/A,,Overcast,350,2013-09-02 11:15:00
6:35 AM,57.2,48.2,72,29.91,10.0,North,15.0,21.9,N/A,,Mostly Cloudy,350,2013-09-02 11:35:00
6:55 AM,57.2,48.2,72,29.92,10.0,NNW,16.1,21.9,N/A,,Mostly Cloudy,340,2013-09-02 11:55:00
7:15 AM,57.2,48.2,72,29.92,10.0,NNW,16.1,20.7,N/A,,Mostly Cloudy,330,2013-09-02 12:15:00
7:35 AM,57.2,48.2,72,29.92,10.0,NNW,17.3,21.9,N/A,,Overcast,340,2013-09-02 12:35:00
7:55 AM,55.4,48.2,77,29.93,10.0,NNW,18.4,23.0,N/A,,Overcast,330,2013-09-02 12:55:00
8:15 AM,55.4,48.2,77,29.94,10.0,NNW,16.1,-,N/A,,Overcast,330,2013-09-02 13:15:00
8:35 AM,55.4,46.4,72,29.94,10.0,NNW,13.8,-,N/A,,Overcast,330,2013-09-02 13:35:00
8:55 AM,55.4,46.4,72,29.95,10.0,NNW,13.8,20.7,N/A,,Overcast,340,2013-09-02 13:55:00
9:15 AM,57.2,46.4,67,29.95,10.0,NNW,12.7,-,N/A,,Overcast,330,2013-09-02 14:15:00
9:35 AM,57.2,48.2,72,29.96,10.0,NW,12.7,19.6,N/A,,Overcast,320,2013-09-02 14:35:00
9:55 AM,57.2,48.2,72,29.97,10.0,NNW,13.8,19.6,N/A,,Overcast,330,2013-09-02 14:55:00
10:15 AM,55.4,48.2,77,29.97,10.0,NNW,12.7,-,N/A,,Overcast,330,2013-09-02 15:15:00
10:35 AM,55.4,46.4,72,29.98,10.0,NW,12.7,-,N/A,,Overcast,320,2013-09-02 15:35:00
10:55 AM,57.2,46.4,67,29.98,10.0,NW,12.7,-,N/A,,Overcast,320,2013-09-02 15:55:00
11:15 AM,57.2,46.4,67,29.98,10.0,NNW,15.0,-,N/A,,Overcast,330,2013-09-02 16:15:00
11:35 AM,57.2,48.2,72,29.98,10.0,NNW,18.4,21.9,N/A,,Overcast,340,2013-09-02 16:35:00
11:55 AM,57.2,46.4,67,29.98,10.0,NNW,13.8,-,N/A,,Overcast,340,2013-09-02 16:55:00
12:15 PM,57.2,46.4,67,29.99,10.0,NNW,15.0,20.7,N/A,,Overcast,330,2013-09-02 17:15:00
12:35 PM,59.0,46.4,63,29.99,10.0,NW,12.7,18.4,N/A,,Overcast,320,2013-09-02 17:35:00
12:55 PM,59.0,48.2,67,29.99,10.0,NW,11.5,16.1,N/A,,Overcast,320,2013-09-02 17:55:00
1:15 PM,59.0,48.2,67,29.99,10.0,NW,11.5,-,N/A,,Overcast,320,2013-09-02 18:15:00
1:35 PM,60.8,48.2,63,29.98,10.0,WNW,12.7,-,N/A,,Overcast,300,2013-09-02 18:35:00
1:55 PM,60.8,48.2,63,29.98,10.0,NW,11.5,16.1,N/A,,Overcast,310,2013-09-02 18:55:00
2:15 PM,60.8,48.2,63,29.97,10.0,NW,12.7,17.3,N/A,,Overcast,310,2013-09-02 19:15:00
2:35 PM,60.8,48.2,63,29.97,10.0,NW,11.5,-,N/A,,Overcast,320,2013-09-02 19:35:00
2:55 PM,62.6,48.2,59,29.97,10.0,WNW,12.7,16.1,N/A,,Overcast,300,2013-09-02 19:55:00
3:15 PM,62.6,50.0,63,29.97,10.0,NW,11.5,-,N/A,,Overcast,310,2013-09-02 20:15:00
3:35 PM,62.6,48.2,59,29.96,10.0,NW,10.4,-,N/A,,Overcast,320,2013-09-02 20:35:00
3:55 PM,62.6,50.0,63,29.96,10.0,NNW,11.5,19.6,N/A,,Overcast,330,2013-09-02 20:55:00
4:15 PM,62.6,50.0,63,29.97,10.0,NNW,11.5,16.1,N/A,,Overcast,330,2013-09-02 21:15:00
4:35 PM,62.6,50.0,63,29.97,10.0,NNW,11.5,16.1,N/A,,Overcast,330,2013-09-02 21:35:00
4:55 PM,62.6,50.0,63,29.97,10.0,NNW,11.5,-,N/A,,Overcast,340,2013-09-02 21:55:00
5:15 PM,62.6,50.0,63,29.97,10.0,North,11.5,-,N/A,,Overcast,350,2013-09-02 22:15:00
5:35 PM,62.6,50.0,63,29.98,10.0,North,11.5,16.1,N/A,,Mostly Cloudy,350,2013-09-02 22:35:00
5:55 PM,62.6,50.0,63,29.98,10.0,North,13.8,-,N/A,,Scattered Clouds,350,2013-09-02 22:55:00
6:15 PM,62.6,48.2,59,29.98,10.0,NNW,10.4,-,N/A,,Scattered Clouds,340,2013-09-02 23:15:00
6:35 PM,60.8,48.2,63,29.98,10.0,North,8.1,-,N/A,,Scattered Clouds,350,2013-09-02 23:35:00
6:55 PM,60.8,48.2,63,29.98,10.0,NNW,8.1,-,N/A,,Mostly Cloudy,330,2013-09-02 23:55:00
7:15 PM,60.8,48.2,63,29.98,10.0,NNW,8.1,-,N/A,,Overcast,330,2013-09-03 00:15:00
7:35 PM,60.8,48.2,63,29.98,10.0,NNW,10.4,-,N/A,,Overcast,340,2013-09-03 00:35:00
7:55 PM,60.8,48.2,63,29.99,10.0,NNW,8.1,-,N/A,,Overcast,340,2013-09-03 00:55:00
8:15 PM,60.8,48.2,63,29.99,10.0,NW,9.2,-,N/A,,Overcast,320,2013-09-03 01:15:00
8:35 PM,60.8,48.2,63,29.99,10.0,NNW,10.4,-,N/A,,Overcast,330,2013-09-03 01:35:00
8:55 PM,60.8,48.2,63,30.00,10.0,NNW,9.2,-,N/A,,Mostly Cloudy,330,2013-09-03 01:55:00
9:15 PM,60.8,48.2,63,30.00,10.0,NNW,10.4,-,N/A,,Mostly Cloudy,330,2013-09-03 02:15:00
9:35 PM,60.8,48.2,63,30.00,10.0,NNW,13.8,-,N/A,,Overcast,340,2013-09-03 02:35:00
9:55 PM,60.8,48.2,63,30.01,10.0,NNW,9.2,-,N/A,,Overcast,330,2013-09-03 02:55:00
10:15 PM,60.8,50.0,68,30.00,10.0,NNW,12.7,18.4,N/A,,Overcast,340,2013-09-03 03:15:00
10:35 PM,59.0,48.2,67,30.01,10.0,NNW,16.1,-,N/A,,Overcast,330,2013-09-03 03:35:00
10:55 PM,59.0,48.2,67,30.01,10.0,NNW,16.1,19.6,N/A,,Overcast,340,2013-09-03 03:55:00
11:15 PM,59.0,50.0,72,30.01,10.0,NNW,17.3,20.7,N/A,,Overcast,340,2013-09-03 04:15:00
11:35 PM,57.2,50.0,77,30.01,10.0,North,13.8,-,N/A,,Mostly Cloudy,350,2013-09-03 04:35:00
11:55 PM,57.2,50.0,77,30.01,10.0,North,10.4,-,N/A,,Clear,350,2013-09-03 04:55:00